Time;durP1;ratioP1;P1;durP2;ratioP2;P2;SDS_P1;SDS_P2;PMS_P1;PMS_P2;Temp;Humidity;BMP_temperature;BMP_pressure;BME280_temperature;BME280_humidity;BME280_pressure;Samples;Min_cycle;Max_cycle;Signal;HPM_P1;HPM_P2
2023/05/26 00:02:13;;;;;;;18.98;4.22;;;12.50;96.80;;;;;;5053455;28;20045;-85
2023/05/26 00:04:42;;;;;;;19.60;4.13;;;12.50;96.90;;;;;;5053255;28;20401;-85
2023/05/26 00:07:08;;;;;;;16.92;4.30;;;12.40;96.90;;;;;;5051793;28;20043;-86
2023/05/26 00:09:33;;;;;;;15.55;3.83;;;12.40;97.00;;;;;;5054302;28;20041;-86
2023/05/26 00:12:00;;;;;;;17.40;4.57;;;12.40;97.00;;;;;;5053310;28;20420;-86
2023/05/26 00:14:26;;;;;;;15.40;4.30;;;12.40;97.00;;;;;;5053234;28;20127;-85
2023/05/26 00:16:53;;;;;;;17.40;4.18;;;12.40;97.10;;;;;;5050245;28;20136;-86
2023/05/26 00:19:21;;;;;;;14.70;4.22;;;12.30;97.10;;;;;;5052327;28;20045;-85
2023/05/26 00:21:47;;;;;;;19.85;4.00;;;12.30;97.10;;;;;;5052709;28;20043;-85
2023/05/26 00:24:12;;;;;;;17.58;4.15;;;12.30;97.20;;;;;;5053450;28;20132;-85
2023/05/26 00:26:38;;;;;;;14.32;4.13;;;12.20;96.80;;;;;;5053069;28;20029;-85
2023/05/26 00:29:04;;;;;;;15.57;3.80;;;12.20;96.50;;;;;;5054310;28;20127;-85
2023/05/26 00:31:30;;;;;;;13.82;3.80;;;12.10;96.50;;;;;;5065324;28;20067;-85
2023/05/26 00:33:56;;;;;;;12.60;3.50;;;12.00;96.30;;;;;;5062940;28;20068;-85
2023/05/26 00:36:21;;;;;;;14.77;4.20;;;12.00;96.60;;;;;;5056652;28;20041;-85
2023/05/26 00:38:47;;;;;;;18.05;4.07;;;12.00;96.20;;;;;;5063212;28;20032;-85
2023/05/26 00:41:13;;;;;;;20.40;4.13;;;11.90;96.20;;;;;;5072570;28;20484;-85
2023/05/26 00:43:38;;;;;;;16.20;3.95;;;11.90;96.20;;;;;;5063524;28;20045;-85
2023/05/26 00:46:04;;;;;;;15.65;4.13;;;11.80;96.30;;;;;;5063454;28;20174;-85
2023/05/26 00:48:29;;;;;;;16.27;4.22;;;11.80;96.30;;;;;;5071495;28;20404;-85
2023/05/26 00:50:55;;;;;;;15.57;4.00;;;11.70;96.40;;;;;;5070163;28;20033;-86
2023/05/26 00:53:21;;;;;;;18.13;4.30;;;11.70;96.60;;;;;;5056720;28;20538;-86
2023/05/26 00:55:51;;;;;;;16.40;3.60;;;11.60;96.80;;;;;;5073259;28;20044;-86
2023/05/26 00:58:17;;;;;;;18.23;3.90;;;11.60;97.00;;;;;;5067243;28;20040;-86
2023/05/26 01:00:43;;;;;;;17.40;3.95;;;11.60;96.90;;;;;;5068034;28;20065;-86
2023/05/26 01:03:13;;;;;;;15.50;4.38;;;11.60;97.10;;;;;;5053095;28;20106;-86
2023/05/26 01:05:39;;;;;;;20.17;4.43;;;11.60;97.20;;;;;;5057261;28;20040;-86
2023/05/26 01:08:04;;;;;;;17.60;4.00;;;11.50;97.10;;;;;;5105267;28;20059;-86
2023/05/26 01:10:33;;;;;;;18.80;4.03;;;11.50;97.10;;;;;;5055485;28;20049;-85
2023/05/26 01:13:03;;;;;;;17.42;4.15;;;11.50;97.20;;;;;;5065270;28;20033;-86
2023/05/26 01:15:40;;;;;;;20.95;4.15;;;11.40;97.20;;;;;;5058037;28;20048;-86
2023/05/26 01:18:11;;;;;;;15.65;3.72;;;11.40;97.30;;;;;;5074973;28;20361;-86
2023/05/26 01:20:53;;;;;;;18.50;4.50;;;11.40;97.40;;;;;;5054601;28;20033;-86
2023/05/26 01:23:28;;;;;;;14.50;4.13;;;11.30;97.30;;;;;;5059047;28;20557;-86
2023/05/26 01:26:14;;;;;;;13.65;4.43;;;11.30;97.40;;;;;;5053524;28;20037;-86
2023/05/26 01:28:42;;;;;;;16.05;3.30;;;11.20;97.40;;;;;;5064023;28;20075;-86
2023/05/26 01:31:09;;;;;;;20.67;3.97;;;11.20;97.40;;;;;;5060854;28;20044;-86
2023/05/26 01:33:35;;;;;;;13.68;3.67;;;11.20;97.40;;;;;;5067620;28;20047;-85
2023/05/26 01:36:01;;;;;;;15.90;4.07;;;11.10;97.50;;;;;;5072927;28;20044;-86
2023/05/26 01:38:28;;;;;;;14.43;4.10;;;11.10;97.50;;;;;;5072553;28;20156;-86
2023/05/26 01:41:05;;;;;;;15.00;4.50;;;11.10;97.50;;;;;;5058968;28;20082;-86
2023/05/26 01:43:34;;;;;;;19.80;4.50;;;11.10;97.50;;;;;;5052903;28;20451;-85
2023/05/26 01:46:05;;;;;;;15.70;3.72;;;11.00;97.50;;;;;;5092280;28;20480;-86
2023/05/26 01:48:33;;;;;;;13.02;3.78;;;11.00;97.50;;;;;;5074132;28;20098;-86
2023/05/26 01:51:01;;;;;;;15.90;3.88;;;11.00;97.20;;;;;;5088783;28;20048;-86
2023/05/26 01:53:31;;;;;;;16.52;4.03;;;10.90;97.10;;;;;;5053452;28;20045;-86
2023/05/26 01:55:59;;;;;;;13.00;3.55;;;10.90;97.10;;;;;;5068239;28;20049;-86
2023/05/26 01:58:25;;;;;;;15.32;3.85;;;10.80;97.10;;;;;;5064751;28;20060;-86
2023/05/26 02:00:54;;;;;;;19.00;4.05;;;10.80;97.10;;;;;;5092793;28;20056;-85
2023/05/26 02:03:20;;;;;;;15.10;4.00;;;10.80;97.20;;;;;;5087189;28;20041;-86
2023/05/26 02:05:46;;;;;;;16.10;3.65;;;10.70;97.20;;;;;;5057004;28;20440;-85
2023/05/26 02:08:12;;;;;;;15.02;4.07;;;10.70;97.40;;;;;;5042046;28;20114;-86
2023/05/26 02:10:39;;;;;;;13.32;3.70;;;10.60;97.30;;;;;;5057991;28;20416;-85
2023/05/26 02:13:05;;;;;;;16.45;4.38;;;10.60;97.40;;;;;;5057814;28;20055;-85
2023/05/26 02:15:31;;;;;;;19.27;4.03;;;10.60;97.60;;;;;;5053052;28;20132;-85
2023/05/26 02:17:57;;;;;;;14.98;3.35;;;10.60;97.50;;;;;;5050845;28;20128;-86
2023/05/26 02:20:23;;;;;;;18.38;4.18;;;10.60;97.50;;;;;;5052687;28;20095;-85
2023/05/26 02:22:49;;;;;;;14.65;3.33;;;10.50;97.50;;;;;;5051697;28;20512;-85
2023/05/26 02:25:15;;;;;;;18.40;4.05;;;10.50;97.90;;;;;;5049317;28;20029;-85
2023/05/26 02:27:41;;;;;;;16.17;4.10;;;10.50;97.50;;;;;;5049897;28;20156;-85
2023/05/26 02:30:07;;;;;;;16.70;4.18;;;10.50;97.60;;;;;;5052082;28;20475;-84
2023/05/26 02:32:34;;;;;;;17.95;4.25;;;10.40;97.40;;;;;;5051153;28;20500;-86
2023/05/26 02:35:00;;;;;;;15.00;3.53;;;10.40;97.50;;;;;;5032691;28;20041;-84
2023/05/26 02:37:26;;;;;;;20.23;4.53;;;10.40;97.60;;;;;;5046222;28;20036;-85
2023/05/26 02:39:53;;;;;;;12.93;3.92;;;10.30;97.80;;;;;;5050956;28;20037;-85
2023/05/26 02:42:18;;;;;;;16.63;3.78;;;10.30;97.80;;;;;;5060318;28;20116;-85
2023/05/26 02:44:44;;;;;;;16.10;3.88;;;10.30;97.80;;;;;;5062637;28;20112;-85
2023/05/26 02:47:10;;;;;;;17.80;4.20;;;10.30;97.70;;;;;;5063928;28;20052;-85
2023/05/26 02:49:36;;;;;;;13.82;3.45;;;10.30;97.50;;;;;;5051455;28;20052;-85
2023/05/26 02:52:01;;;;;;;14.38;3.80;;;10.20;97.30;;;;;;5052770;28;20485;-85
2023/05/26 02:54:27;;;;;;;15.98;4.15;;;10.10;97.40;;;;;;5067995;28;20077;-85
2023/05/26 02:56:53;;;;;;;17.67;4.15;;;10.10;97.40;;;;;;5069004;28;20041;-84
2023/05/26 02:59:18;;;;;;;14.43;3.78;;;10.10;97.30;;;;;;5061402;28;20396;-85
2023/05/26 03:01:44;;;;;;;18.38;3.83;;;10.00;97.30;;;;;;5055207;28;20561;-85
2023/05/26 03:04:09;;;;;;;16.52;4.35;;;10.00;97.40;;;;;;5068513;28;20041;-85
2023/05/26 03:06:35;;;;;;;13.88;3.60;;;9.90;97.40;;;;;;5059549;28;20099;-85
2023/05/26 03:09:01;;;;;;;15.35;3.75;;;9.90;97.30;;;;;;5053598;28;20397;-84
2023/05/26 03:11:27;;;;;;;14.52;3.83;;;9.80;97.20;;;;;;5071729;28;20141;-84
2023/05/26 03:13:52;;;;;;;12.80;3.78;;;9.80;97.10;;;;;;5059232;28;20057;-84
2023/05/26 03:16:19;;;;;;;12.13;3.38;;;9.80;97.00;;;;;;5060921;28;20047;-85
2023/05/26 03:18:45;;;;;;;17.27;3.92;;;9.70;96.90;;;;;;5062456;28;20140;-85
2023/05/26 03:21:10;;;;;;;14.48;3.33;;;9.70;96.90;;;;;;5052475;28;20119;-85
2023/05/26 03:23:36;;;;;;;13.73;3.67;;;9.70;96.90;;;;;;5049745;28;20037;-85
2023/05/26 03:26:02;;;;;;;15.10;3.75;;;9.70;97.00;;;;;;5051664;28;20110;-86
2023/05/26 03:28:27;;;;;;;14.60;3.85;;;9.60;97.00;;;;;;5058105;28;20098;-85
2023/05/26 03:30:53;;;;;;;13.65;3.65;;;9.50;97.00;;;;;;5065000;28;20036;-85
2023/05/26 03:33:18;;;;;;;13.52;3.60;;;9.50;97.00;;;;;;5070274;28;20059;-86
2023/05/26 03:35:44;;;;;;;13.55;3.30;;;9.50;96.90;;;;;;5070553;28;20037;-85
2023/05/26 03:38:10;;;;;;;15.05;3.70;;;9.40;96.90;;;;;;5052357;28;20089;-85
2023/05/26 03:40:36;;;;;;;13.40;3.60;;;9.40;96.90;;;;;;5066945;28;20055;-85
2023/05/26 03:43:02;;;;;;;13.63;3.47;;;9.40;97.00;;;;;;5068194;28;20102;-85
2023/05/26 03:45:28;;;;;;;12.38;3.08;;;9.40;97.00;;;;;;5099599;28;20045;-85
2023/05/26 03:47:53;;;;;;;14.38;3.42;;;9.30;97.00;;;;;;5054986;28;20051;-84
2023/05/26 03:50:19;;;;;;;12.25;3.60;;;9.30;96.90;;;;;;5058592;28;20389;-85
2023/05/26 03:52:45;;;;;;;13.30;3.50;;;9.30;97.00;;;;;;5056974;28;20059;-85
2023/05/26 03:55:11;;;;;;;13.63;3.17;;;9.30;97.00;;;;;;5061925;28;20070;-85
2023/05/26 03:57:37;;;;;;;15.40;3.97;;;9.20;97.10;;;;;;5069249;28;20041;-85
2023/05/26 04:00:05;;;;;;;14.35;3.80;;;9.20;97.20;;;;;;5060459;28;20045;-85
2023/05/26 04:02:31;;;;;;;11.50;3.15;;;9.20;97.50;;;;;;5100409;28;20048;-86
2023/05/26 04:04:57;;;;;;;15.43;3.67;;;9.20;97.70;;;;;;5064066;28;20044;-85
2023/05/26 04:07:22;;;;;;;17.35;3.97;;;9.20;97.70;;;;;;5049896;28;20451;-85
2023/05/26 04:09:48;;;;;;;16.17;3.78;;;9.20;98.10;;;;;;5055521;28;20048;-85
2023/05/26 04:12:14;;;;;;;14.45;3.75;;;9.10;97.80;;;;;;5064199;28;20092;-85
2023/05/26 04:14:39;;;;;;;14.43;3.60;;;9.10;97.80;;;;;;5053937;28;20466;-85
2023/05/26 04:17:05;;;;;;;14.93;3.70;;;9.10;97.70;;;;;;5071670;28;20045;-85
2023/05/26 04:19:30;;;;;;;17.05;4.18;;;9.10;97.70;;;;;;5073197;28;20080;-85
2023/05/26 04:21:57;;;;;;;12.63;3.38;;;9.10;97.80;;;;;;5046138;28;20390;-85
2023/05/26 04:24:22;;;;;;;13.95;3.63;;;9.10;97.90;;;;;;5055830;28;20056;-84
2023/05/26 04:26:48;;;;;;;13.85;3.60;;;9.10;98.00;;;;;;5069725;28;20041;-85
2023/05/26 04:29:15;;;;;;;15.90;3.40;;;9.10;97.90;;;;;;5056562;28;20056;-85
2023/05/26 04:31:42;;;;;;;15.20;3.95;;;9.10;97.70;;;;;;5057255;28;20059;-85
2023/05/26 04:34:08;;;;;;;17.02;3.42;;;9.10;97.70;;;;;;5052738;28;20053;-83
2023/05/26 04:36:38;;;;;;;14.23;3.75;;;9.10;97.60;;;;;;5087415;28;20090;-84
2023/05/26 04:39:06;;;;;;;12.23;3.47;;;9.10;97.70;;;;;;5055484;28;20076;-83
2023/05/26 04:41:32;;;;;;;16.75;4.20;;;9.10;97.90;;;;;;5054783;28;20048;-83
2023/05/26 04:43:59;;;;;;;15.23;3.60;;;9.10;98.10;;;;;;5055389;28;20481;-84
2023/05/26 04:46:25;;;;;;;16.02;4.07;;;9.10;98.10;;;;;;5053243;28;20041;-84
2023/05/26 04:48:52;;;;;;;12.75;3.50;;;9.10;98.20;;;;;;5054717;28;20367;-83
2023/05/26 04:51:18;;;;;;;16.25;3.83;;;9.10;98.30;;;;;;5061431;28;20403;-84
2023/05/26 04:53:43;;;;;;;12.88;3.15;;;9.10;98.30;;;;;;5063818;28;20120;-85
2023/05/26 04:56:10;;;;;;;11.60;3.25;;;9.10;98.20;;;;;;5055727;28;20099;-85
2023/05/26 04:58:36;;;;;;;14.98;3.47;;;9.10;98.00;;;;;;5055028;28;20040;-85
2023/05/26 05:01:03;;;;;;;14.30;3.60;;;9.10;98.00;;;;;;5060227;28;20040;-84
2023/05/26 05:03:29;;;;;;;14.23;3.50;;;9.10;98.10;;;;;;5067157;28;20110;-85
2023/05/26 05:05:55;;;;;;;13.95;3.70;;;9.10;98.10;;;;;;5053602;28;20087;-85
2023/05/26 05:08:21;;;;;;;12.75;3.28;;;9.10;98.20;;;;;;5053026;28;20080;-85
2023/05/26 05:10:46;;;;;;;18.10;3.78;;;9.10;98.20;;;;;;5055522;28;20524;-95
2023/05/26 05:13:12;;;;;;;21.63;4.63;;;9.10;98.30;;;;;;5056388;28;20045;-93
2023/05/26 05:15:38;;;;;;;15.98;3.72;;;9.10;98.20;;;;;;5055859;28;20357;-96
2023/05/26 05:18:03;;;;;;;16.73;3.83;;;9.10;98.00;;;;;;5053632;28;20132;-93
2023/05/26 05:20:29;;;;;;;12.27;3.65;;;9.10;97.90;;;;;;5040949;28;20047;-86
2023/05/26 05:22:54;;;;;;;13.63;3.65;;;9.20;98.20;;;;;;5106220;28;20529;-85
2023/05/26 05:25:20;;;;;;;17.90;3.97;;;9.20;98.30;;;;;;5071949;28;20055;-86
2023/05/26 05:27:46;;;;;;;14.45;3.88;;;9.20;98.50;;;;;;5050237;28;20155;-84
2023/05/26 05:30:12;;;;;;;17.77;4.07;;;9.20;98.50;;;;;;5051078;28;20228;-85
2023/05/26 05:32:38;;;;;;;13.55;3.63;;;9.20;98.60;;;;;;5054586;28;20401;-85
2023/05/26 05:35:04;;;;;;;16.02;3.92;;;9.30;98.60;;;;;;5054226;28;20048;-85
2023/05/26 05:37:30;;;;;;;13.32;3.38;;;9.30;98.60;;;;;;5066494;28;20048;-85
2023/05/26 05:39:56;;;;;;;13.27;3.50;;;9.30;98.40;;;;;;5055462;28;20397;-84
2023/05/26 05:42:24;;;;;;;16.55;3.75;;;9.30;98.30;;;;;;5069474;28;20098;-84
2023/05/26 05:44:50;;;;;;;14.88;3.78;;;9.30;98.30;;;;;;5048120;28;20124;-85
2023/05/26 05:47:16;;;;;;;18.45;4.32;;;9.30;98.30;;;;;;5062495;28;20098;-84
2023/05/26 05:49:41;;;;;;;12.80;3.60;;;9.40;98.30;;;;;;5051795;28;20099;-86
2023/05/26 05:52:07;;;;;;;12.73;3.40;;;9.50;98.30;;;;;;5059689;28;20037;-85
2023/05/26 05:54:33;;;;;;;14.88;3.90;;;9.50;98.40;;;;;;5052393;28;20048;-84
2023/05/26 05:56:59;;;;;;;17.25;3.40;;;9.50;98.40;;;;;;5043485;28;20087;-83
2023/05/26 05:59:25;;;;;;;11.68;3.60;;;9.50;98.20;;;;;;5059826;28;20380;-86
2023/05/26 06:01:50;;;;;;;16.35;3.70;;;9.50;98.10;;;;;;5052863;28;20560;-85
2023/05/26 06:04:16;;;;;;;19.35;3.80;;;9.60;98.20;;;;;;5051661;28;20128;-84
2023/05/26 06:06:42;;;;;;;16.58;3.92;;;9.70;98.20;;;;;;5050830;28;20049;-84
2023/05/26 06:09:07;;;;;;;18.52;4.15;;;9.70;98.20;;;;;;5051801;28;20057;-84
2023/05/26 06:11:33;;;;;;;15.85;3.90;;;9.70;98.10;;;;;;5062864;28;20466;-84
2023/05/26 06:13:59;;;;;;;20.70;4.05;;;9.80;98.10;;;;;;5053019;28;20045;-84
2023/05/26 06:16:25;;;;;;;25.15;4.35;;;9.90;98.20;;;;;;5054655;28;20467;-84
2023/05/26 06:18:51;;;;;;;23.92;4.57;;;10.00;98.20;;;;;;5061074;28;20075;-84
2023/05/26 06:21:16;;;;;;;18.80;4.35;;;10.00;98.10;;;;;;5051221;28;20037;-84
2023/05/26 06:23:42;;;;;;;20.75;4.03;;;10.00;98.00;;;;;;5052432;28;20482;-84
2023/05/26 06:26:07;;;;;;;23.00;4.40;;;10.10;98.00;;;;;;5059514;28;20032;-83
2023/05/26 06:28:33;;;;;;;17.40;3.75;;;10.20;98.00;;;;;;5057019;28;20554;-83
2023/05/26 06:30:58;;;;;;;22.05;4.75;;;10.40;97.90;;;;;;5097576;28;20036;-83
2023/05/26 06:33:24;;;;;;;25.55;4.30;;;10.40;97.80;;;;;;5053862;28;20072;-83
2023/05/26 06:35:50;;;;;;;21.80;4.25;;;10.40;97.80;;;;;;5099476;28;20048;-86
2023/05/26 06:38:15;;;;;;;22.77;4.05;;;10.50;97.70;;;;;;5051358;28;20040;-84
2023/05/26 06:40:41;;;;;;;17.48;3.90;;;10.50;97.60;;;;;;5051079;28;20045;-83
2023/05/26 06:43:06;;;;;;;21.27;4.60;;;10.60;97.50;;;;;;5049770;28;20045;-84
2023/05/26 06:45:32;;;;;;;23.33;4.60;;;10.60;97.30;;;;;;5051511;28;20056;-83
2023/05/26 06:47:57;;;;;;;19.63;4.07;;;10.70;97.20;;;;;;5051037;28;20048;-83
2023/05/26 06:50:23;;;;;;;23.67;4.43;;;10.80;97.20;;;;;;5052608;28;20489;-85
2023/05/26 06:52:49;;;;;;;25.33;4.07;;;10.80;97.10;;;;;;5049660;28;20132;-85
2023/05/26 06:55:16;;;;;;;17.98;3.97;;;11.00;97.00;;;;;;5054979;28;20045;-86
2023/05/26 06:57:42;;;;;;;23.85;4.28;;;11.00;96.90;;;;;;5065099;28;20473;-86
2023/05/26 07:00:08;;;;;;;18.77;3.92;;;11.10;96.80;;;;;;5053005;28;20053;-87
2023/05/26 07:02:35;;;;;;;22.40;4.18;;;11.20;96.80;;;;;;5052527;28;20096;-88
2023/05/26 07:05:00;;;;;;;20.10;4.03;;;11.30;96.70;;;;;;5061294;28;20040;-88
2023/05/26 07:07:26;;;;;;;20.83;4.40;;;11.40;96.70;;;;;;5056975;28;20546;-88
2023/05/26 07:09:52;;;;;;;20.05;4.28;;;11.50;96.70;;;;;;5054115;28;20049;-87
2023/05/26 07:12:19;;;;;;;20.70;4.18;;;11.50;96.60;;;;;;5052915;28;20469;-89
2023/05/26 07:14:46;;;;;;;24.33;4.43;;;11.70;96.70;;;;;;5051027;28;20079;-91
2023/05/26 07:17:12;;;;;;;19.20;4.05;;;11.80;96.50;;;;;;5065082;28;20053;-89
2023/05/26 07:19:37;;;;;;;28.67;4.88;;;11.80;96.40;;;;;;5052655;28;20033;-89
2023/05/26 07:22:04;;;;;;;15.75;3.95;;;11.90;95.80;;;;;;5057117;28;20489;-89
2023/05/26 07:24:29;;;;;;;21.23;4.03;;;12.00;95.80;;;;;;5080963;28;20396;-88
2023/05/26 07:26:55;;;;;;;22.02;3.67;;;12.10;95.80;;;;;;5038577;28;20036;-90
2023/05/26 07:29:21;;;;;;;15.85;3.55;;;12.20;95.80;;;;;;5058959;28;20499;-87
2023/05/26 07:31:46;;;;;;;17.27;3.65;;;12.30;95.70;;;;;;5055893;28;20123;-89
2023/05/26 07:34:15;;;;;;;17.77;4.05;;;12.30;95.50;;;;;;5089599;28;20047;-93
2023/05/26 07:36:56;;;;;;;15.82;3.47;;;12.50;95.70;;;;;;5048254;28;20045;-87
2023/05/26 07:39:21;;;;;;;19.50;4.30;;;12.50;95.80;;;;;;5050957;28;20118;-85
2023/05/26 07:41:47;;;;;;;27.13;4.65;;;12.60;95.20;;;;;;5052641;28;20072;-88
2023/05/26 07:44:13;;;;;;;20.75;4.00;;;12.70;95.10;;;;;;5050018;28;20041;-88
2023/05/26 07:46:38;;;;;;;21.67;4.57;;;12.80;94.70;;;;;;5051254;28;20090;-87
2023/05/26 07:49:04;;;;;;;21.83;4.25;;;12.80;95.10;;;;;;5047990;28;20048;-88
2023/05/26 07:51:31;;;;;;;17.33;4.18;;;12.90;94.90;;;;;;5044199;28;20044;-88
2023/05/26 07:53:57;;;;;;;21.33;4.18;;;13.00;95.00;;;;;;5055020;28;20076;-88
2023/05/26 07:56:23;;;;;;;16.65;3.67;;;13.10;94.60;;;;;;5055393;28;20077;-87
2023/05/26 07:58:48;;;;;;;19.45;4.30;;;13.20;94.80;;;;;;5047817;28;20044;-86
2023/05/26 08:01:14;;;;;;;15.00;3.90;;;13.30;94.70;;;;;;5053247;28;20036;-87
2023/05/26 08:03:40;;;;;;;21.58;4.35;;;13.40;94.70;;;;;;5053285;28;20087;-88
2023/05/26 08:06:05;;;;;;;13.73;3.40;;;13.50;94.40;;;;;;5053327;28;20033;-85
2023/05/26 08:08:31;;;;;;;15.65;3.58;;;13.50;94.60;;;;;;5051761;28;20056;-88
2023/05/26 08:10:56;;;;;;;18.00;3.90;;;13.60;93.80;;;;;;5055515;28;20052;-88
2023/05/26 08:13:22;;;;;;;19.83;4.38;;;13.60;93.90;;;;;;5074165;28;20048;-89
2023/05/26 08:15:48;;;;;;;18.73;4.00;;;13.70;94.00;;;;;;5051970;28;20056;-86
2023/05/26 08:18:13;;;;;;;19.63;3.65;;;13.80;94.00;;;;;;5042880;28;20049;-88
2023/05/26 08:20:39;;;;;;;17.27;3.60;;;13.90;93.70;;;;;;5055439;28;20048;-84
2023/05/26 08:23:05;;;;;;;13.77;3.63;;;14.00;93.90;;;;;;5057955;28;20071;-86
2023/05/26 08:25:30;;;;;;;18.35;3.47;;;14.10;93.90;;;;;;5051744;28;20095;-86
2023/05/26 08:27:56;;;;;;;13.45;3.17;;;14.20;94.20;;;;;;5050141;28;20041;-85
2023/05/26 08:30:22;;;;;;;16.48;3.50;;;14.30;94.30;;;;;;5052105;28;20041;-87
2023/05/26 08:32:47;;;;;;;15.82;3.60;;;14.40;94.10;;;;;;5034995;28;20444;-90
2023/05/26 08:35:13;;;;;;;14.18;3.13;;;14.50;93.90;;;;;;5047756;28;20055;-87
2023/05/26 08:37:38;;;;;;;15.30;3.35;;;14.60;93.90;;;;;;5050829;28;20128;-88
2023/05/26 08:40:05;;;;;;;18.10;3.70;;;14.70;94.10;;;;;;5060668;28;20475;-88
2023/05/26 08:42:34;;;;;;;14.95;3.35;;;14.80;94.00;;;;;;5055309;28;20520;-88
2023/05/26 08:45:01;;;;;;;14.88;3.55;;;14.90;93.60;;;;;;5057153;28;20059;-88
2023/05/26 08:47:27;;;;;;;16.42;3.88;;;14.90;93.10;;;;;;5057699;28;20125;-86
2023/05/26 08:49:56;;;;;;;15.55;3.88;;;15.00;93.20;;;;;;5053025;28;20500;-87
2023/05/26 08:52:22;;;;;;;14.13;3.15;;;15.10;92.40;;;;;;5054811;28;20113;-88
2023/05/26 08:54:49;;;;;;;11.85;2.88;;;15.20;91.80;;;;;;5063678;28;20512;-87
2023/05/26 08:57:17;;;;;;;12.40;2.72;;;15.30;92.70;;;;;;5066241;28;20049;-86
2023/05/26 08:59:46;;;;;;;15.52;3.35;;;15.40;93.00;;;;;;5059695;28;20041;-89
2023/05/26 09:02:12;;;;;;;13.35;3.25;;;15.50;92.00;;;;;;5052408;28;20036;-88
2023/05/26 09:04:38;;;;;;;13.18;3.15;;;15.50;92.50;;;;;;5053835;28;20102;-89
2023/05/26 09:07:08;;;;;;;12.30;2.65;;;15.60;92.00;;;;;;5095181;28;20057;-91
2023/05/26 09:09:37;;;;;;;11.50;3.10;;;15.60;92.50;;;;;;5065889;28;20048;-91
2023/05/26 09:12:16;;;;;;;15.77;3.38;;;15.70;91.80;;;;;;5064277;28;20512;-90
2023/05/26 09:14:43;;;;;;;15.70;3.72;;;15.70;92.00;;;;;;5062717;28;20531;-89
2023/05/26 09:17:13;;;;;;;13.13;2.97;;;15.80;92.60;;;;;;5066477;28;20044;-90
2023/05/26 09:19:38;;;;;;;13.77;2.83;;;15.80;92.80;;;;;;5058797;28;20047;-90
2023/05/26 09:22:06;;;;;;;15.15;3.13;;;15.90;92.70;;;;;;5056467;28;20045;-90
2023/05/26 09:24:45;;;;;;;12.88;3.05;;;16.00;92.70;;;;;;5081294;28;20519;-89
2023/05/26 09:27:22;;;;;;;17.25;3.80;;;16.10;92.60;;;;;;5053616;28;20130;-87
2023/05/26 09:29:53;;;;;;;13.20;3.10;;;16.10;92.20;;;;;;5059045;28;20037;-89
2023/05/26 09:32:27;;;;;;;13.43;3.10;;;16.20;92.50;;;;;;5057381;28;20056;-90
2023/05/26 09:34:59;;;;;;;;;;;16.20;92.60;;;;;;5052239;28;20501;-92
2023/05/26 09:37:29;;;;;;;11.75;3.10;;;16.20;91.80;;;;;;5060223;28;20391;-93
2023/05/26 09:40:05;;;;;;;14.63;3.13;;;16.30;92.50;;;;;;5061645;28;20051;-88
2023/05/26 09:42:31;;;;;;;14.88;3.47;;;16.40;91.90;;;;;;5052560;28;20052;-90
2023/05/26 09:44:56;;;;;;;12.07;2.95;;;16.50;91.40;;;;;;5058855;28;20091;-89
2023/05/26 09:47:22;;;;;;;14.27;3.20;;;16.50;91.70;;;;;;5054044;28;20056;-88
2023/05/26 09:49:47;;;;;;;16.30;3.42;;;16.60;92.00;;;;;;5058582;28;20049;-88
2023/05/26 09:52:13;;;;;;;16.55;3.25;;;16.70;91.20;;;;;;5049305;28;20124;-87
2023/05/26 09:54:40;;;;;;;13.30;3.22;;;16.70;91.20;;;;;;5058304;28;20386;-92
2023/05/26 09:57:12;;;;;;;15.68;3.83;;;16.80;91.40;;;;;;5052775;28;20045;-88
2023/05/26 09:59:40;;;;;;;14.00;3.25;;;16.90;90.90;;;;;;5054727;28;20033;-88
2023/05/26 10:02:18;;;;;;;15.90;3.15;;;16.90;91.50;;;;;;5052777;28;20076;-89
2023/05/26 10:04:44;;;;;;;13.18;3.00;;;17.00;91.90;;;;;;5055603;28;20073;-92
2023/05/26 10:07:11;;;;;;;19.65;3.67;;;17.00;91.90;;;;;;5079849;28;20052;-89
2023/05/26 10:09:38;;;;;;;17.17;3.80;;;17.10;92.00;;;;;;5047848;28;20045;-88
2023/05/26 10:12:07;;;;;;;14.60;3.50;;;17.20;91.50;;;;;;5050567;28;20041;-89
2023/05/26 10:14:35;;;;;;;13.63;3.30;;;17.20;91.70;;;;;;5056055;28;20507;-88
2023/05/26 10:17:03;;;;;;;13.30;3.05;;;17.30;92.00;;;;;;5089612;28;20037;-90
2023/05/26 10:19:29;;;;;;;14.95;3.53;;;17.30;92.20;;;;;;5055950;28;20134;-90
2023/05/26 10:22:01;;;;;;;11.57;3.30;;;17.40;92.40;;;;;;5058209;28;20033;-90
2023/05/26 10:24:40;;;;;;;13.20;3.20;;;17.50;92.50;;;;;;5062836;28;20040;-90
2023/05/26 10:27:19;;;;;;;14.40;3.22;;;17.60;92.50;;;;;;5055378;28;20051;-90
2023/05/26 10:29:53;;;;;;;15.07;2.95;;;17.70;92.30;;;;;;5065174;28;20033;-90
2023/05/26 10:32:45;;;;;;;13.52;3.05;;;17.80;91.80;;;;;;5052241;28;20063;-92
2023/05/26 10:35:21;;;;;;;14.80;3.40;;;17.80;92.20;;;;;;5083829;28;20123;-91
2023/05/26 10:38:03;;;;;;;11.32;2.92;;;18.00;92.20;;;;;;5049056;28;20052;-89
2023/05/26 10:40:33;;;;;;;11.48;3.25;;;18.00;92.30;;;;;;5054326;28;20041;-91
2023/05/26 10:43:00;;;;;;;12.80;3.13;;;18.10;92.10;;;;;;5042992;28;20033;-91
2023/05/26 10:45:32;;;;;;;13.00;3.47;;;18.20;91.90;;;;;;5080382;28;20053;-91
2023/05/26 10:47:59;;;;;;;11.82;3.10;;;18.30;92.10;;;;;;5044564;28;20048;-92
2023/05/26 10:50:25;;;;;;;13.13;3.35;;;18.30;91.40;;;;;;5037744;28;20053;-92
2023/05/26 10:52:51;;;;;;;13.30;3.33;;;18.40;91.50;;;;;;5033128;28;20037;-93
2023/05/26 10:55:30;;;;;;;13.02;3.47;;;18.50;91.10;;;;;;5038431;28;20041;-92
2023/05/26 10:58:34;;;;;;;14.55;2.95;;;18.50;90.20;;;;;;5052825;28;20412;-90
2023/05/26 11:01:00;;;;;;;;;;;18.60;90.90;;;;;;5056232;28;20133;-91
2023/05/26 11:03:54;;;;;;;15.23;3.20;;;18.50;91.30;;;;;;5059686;28;20360;-93
2023/05/26 11:06:47;;;;;;;13.45;3.53;;;18.60;91.40;;;;;;5049736;28;20045;-90
2023/05/26 11:09:14;;;;;;;12.73;3.25;;;18.70;91.80;;;;;;5065205;28;20095;-91
2023/05/26 11:11:51;;;;;;;17.20;3.72;;;18.90;91.10;;;;;;5054797;28;20397;-93
2023/05/26 11:14:29;;;;;;;11.63;3.10;;;18.90;90.20;;;;;;5047765;28;20048;-91
2023/05/26 11:16:57;;;;;;;18.10;3.97;;;18.90;90.30;;;;;;5049922;28;20404;-91
2023/05/26 11:19:32;;;;;;;13.15;3.72;;;18.90;89.70;;;;;;5052315;28;20099;-91
2023/05/26 11:22:09;;;;;;;12.77;2.97;;;18.90;90.70;;;;;;5059273;28;20091;-91
2023/05/26 11:24:35;;;;;;;10.70;3.20;;;19.00;91.40;;;;;;5074554;28;20091;-92
2023/05/26 11:27:02;;;;;;;14.30;3.70;;;19.00;91.40;;;;;;5060563;28;20048;-91
2023/05/26 11:29:30;;;;;;;11.95;3.60;;;19.10;90.60;;;;;;5065038;28;20413;-92
2023/05/26 11:31:56;;;;;;;15.48;3.63;;;19.20;90.60;;;;;;5062238;28;20056;-92
2023/05/26 11:34:22;;;;;;;14.88;4.00;;;19.30;90.70;;;;;;5055837;28;20044;-87
2023/05/26 11:36:49;;;;;;;12.50;3.10;;;19.30;90.30;;;;;;5053420;28;20721;-91
2023/05/26 11:39:15;;;;;;;17.08;3.60;;;19.30;89.40;;;;;;5054277;28;20048;-91
2023/05/26 11:41:42;;;;;;;16.10;4.00;;;19.30;90.40;;;;;;5052319;28;20481;-90
2023/05/26 11:44:08;;;;;;;17.50;3.78;;;19.40;90.00;;;;;;5055926;28;20099;-90
2023/05/26 11:46:36;;;;;;;12.55;3.25;;;19.40;90.00;;;;;;5054501;28;20408;-90
2023/05/26 11:49:03;;;;;;;16.80;3.70;;;19.40;90.40;;;;;;5052683;28;20397;-90
2023/05/26 11:51:31;;;;;;;13.93;3.67;;;19.50;90.20;;;;;;5051293;28;20036;-92
2023/05/26 11:53:58;;;;;;;13.45;3.47;;;19.50;86.60;;;;;;5108862;28;20098;-89
2023/05/26 11:56:35;;;;;;;15.85;3.75;;;19.50;89.20;;;;;;5047511;28;20068;-90
2023/05/26 11:59:01;;;;;;;14.00;3.63;;;19.40;89.90;;;;;;5052840;28;20094;-90
2023/05/26 12:01:28;;;;;;;13.40;3.40;;;19.50;89.10;;;;;;5072921;28;20079;-92
2023/05/26 12:03:56;;;;;;;13.45;3.25;;;19.60;90.40;;;;;;5052297;28;20058;-89
2023/05/26 12:06:28;;;;;;;15.00;3.55;;;19.60;90.60;;;;;;5058792;28;20110;-89
2023/05/26 12:08:56;;;;;;;13.27;3.28;;;19.60;90.10;;;;;;5068925;28;20059;-89
2023/05/26 12:11:28;;;;;;;15.93;3.58;;;19.60;90.40;;;;;;5060987;28;20508;-92
2023/05/26 12:14:02;;;;;;;14.48;3.58;;;19.70;90.70;;;;;;5051729;28;20044;-89
2023/05/26 12:16:27;;;;;;;17.08;4.30;;;19.80;90.00;;;;;;5054677;28;20056;-88
2023/05/26 12:18:55;;;;;;;12.02;3.47;;;19.90;89.00;;;;;;5068075;28;20041;-90
2023/05/26 12:21:22;;;;;;;17.50;3.53;;;19.80;90.20;;;;;;5057339;28;20056;-90
2023/05/26 12:23:48;;;;;;;13.98;3.63;;;19.80;90.30;;;;;;5055578;28;20118;-93
2023/05/26 12:26:20;;;;;;;14.95;4.15;;;19.90;91.00;;;;;;5067774;28;20502;-92
2023/05/26 12:28:45;;;;;;;15.30;3.95;;;19.90;87.80;;;;;;5067220;28;20068;-88
2023/05/26 12:31:11;;;;;;;11.57;3.42;;;20.00;88.80;;;;;;5054084;28;20068;-87
2023/05/26 12:33:37;;;;;;;15.82;4.00;;;20.00;90.30;;;;;;5055732;28;20445;-89
2023/05/26 12:36:04;;;;;;;14.50;4.00;;;20.00;90.20;;;;;;5044666;28;20481;-93
2023/05/26 12:38:41;;;;;;;16.15;3.95;;;20.10;90.70;;;;;;5092362;28;20040;-91
2023/05/26 12:41:06;;;;;;;15.43;3.92;;;20.10;88.60;;;;;;5053358;28;20048;-87
2023/05/26 12:43:32;;;;;;;18.25;4.20;;;20.10;84.50;;;;;;5055817;28;20400;-89